Terminal Aerodrome Forecast
Issued by NWS Jackson, MS

Home | Current Version | Previous Version | Text Only | Print | Product List | Glossary On
Versions: 1 2 3 4 5 6 7 8 9 10 11 12 13
000
FTUS44 KMEG 220901 AAA
TAFTUP
TAF AMD
KTUP 220901Z 2209/2306 19006KT P6SM SCT006 OVC010
      TEMPO 2209/2213 4SM -DZ BR BKN006
     FM221500 19012KT P6SM VCSH BKN009 OVC025
     FM222100 18009KT 5SM SHRA VCTS BKN012CB OVC020
      TEMPO 2221/2301 3SM TSRA OVC009CB
     FM230300 22009KT 5SM -SHRA OVC005=

USA.gov is the U.S. government's official web portal to all federal, state and local government web resources and services.